Time;durP1;ratioP1;P1;durP2;ratioP2;P2;SDS_P1;SDS_P2;PMS_P1;PMS_P2;Temp;Humidity;BMP_temperature;BMP_pressure;BME280_temperature;BME280_humidity;BME280_pressure;Samples;Min_cycle;Max_cycle;Signal;HPM_P1;HPM_P2
2022/06/01 00:01:27;;;;;;;2.53;1.48;;;;;;;;;;6119106;23;20052;-85
2022/06/01 00:04:23;;;;;;;2.63;1.52;;;;;;;;;;6083147;23;20044;-85
2022/06/01 00:06:56;;;;;;;3.15;1.60;;;;;;;;;;6148840;23;20033;-85
2022/06/01 00:09:25;;;;;;;2.85;1.58;;;;;;;;;;6165679;23;20028;-84
2022/06/01 00:11:57;;;;;;;2.40;1.48;;;;;;;;;;6176128;23;20156;-83
2022/06/01 00:14:29;;;;;;;2.53;1.48;;;;;;;;;;6178732;23;20412;-84
2022/06/01 00:16:57;;;;;;;2.75;1.40;;;;;;;;;;6178224;23;20029;-84
2022/06/01 00:19:29;;;;;;;4.00;1.80;;;;;;;;;;6167760;23;20032;-84
2022/06/01 00:22:12;;;;;;;2.67;1.45;;;;;;;;;;6178829;23;20435;-83
2022/06/01 00:24:46;;;;;;;2.45;1.48;;;;;;;;;;6248617;22;20033;-84
2022/06/01 00:28:05;;;;;;;4.30;1.42;;;;;;;;;;6273113;22;20111;-84
2022/06/01 00:31:11;;;;;;;3.25;1.67;;;;;;;;;;6274804;22;20011;-84
2022/06/01 00:33:43;;;;;;;4.78;2.20;;;;;;;;;;6274072;22;20016;-87
2022/06/01 00:36:11;;;;;;;5.38;1.88;;;;;;;;;;6273993;22;20050;-86
2022/06/01 00:39:03;;;;;;;3.40;1.70;;;;;;;;;;6272872;22;20020;-87
2022/06/01 00:41:31;;;;;;;3.40;1.80;;;;;;;;;;6272743;22;20103;-87
2022/06/01 00:43:59;;;;;;;2.88;1.80;;;;;;;;;;6273172;22;20122;-87
2022/06/01 00:46:51;;;;;;;3.92;1.60;;;;;;;;;;6274165;22;20011;-87
2022/06/01 00:49:21;;;;;;;3.03;1.92;;;;;;;;;;6274647;22;20387;-87
2022/06/01 00:51:50;;;;;;;3.47;1.80;;;;;;;;;;6274127;22;20034;-84
2022/06/01 00:54:17;;;;;;;4.80;1.65;;;;;;;;;;6273696;22;20122;-84
2022/06/01 00:56:53;;;;;;;2.90;1.65;;;;;;;;;;6273688;22;20031;-86
2022/06/01 00:59:25;;;;;;;4.95;1.67;;;;;;;;;;6273616;22;20016;-86
2022/06/01 01:01:57;;;;;;;3.10;1.60;;;;;;;;;;6274469;22;20081;-86
2022/06/01 01:04:26;;;;;;;2.97;1.52;;;;;;;;;;6274340;22;20024;-86
2022/06/01 01:06:55;;;;;;;2.53;1.42;;;;;;;;;;6274726;22;20023;-89
2022/06/01 01:09:23;;;;;;;3.15;1.90;;;;;;;;;;6273325;22;20050;-89
2022/06/01 01:12:18;;;;;;;3.13;1.40;;;;;;;;;;6274104;22;20043;-89
2022/06/01 01:14:55;;;;;;;4.80;1.90;;;;;;;;;;6272986;22;20055;-88
2022/06/01 01:17:23;;;;;;;2.83;1.63;;;;;;;;;;6237325;22;20362;-83
2022/06/01 01:19:54;;;;;;;2.55;1.63;;;;;;;;;;6274381;22;20022;-84
2022/06/01 01:22:42;;;;;;;4.03;1.70;;;;;;;;;;6273749;22;20098;-83
2022/06/01 01:25:27;;;;;;;2.67;1.45;;;;;;;;;;6274777;22;20031;-84
2022/06/01 01:28:02;;;;;;;2.90;1.60;;;;;;;;;;6275382;22;20030;-83
2022/06/01 01:30:38;;;;;;;2.55;1.50;;;;;;;;;;6275457;22;20024;-84
2022/06/01 01:33:23;;;;;;;2.60;1.67;;;;;;;;;;6275802;22;20399;-84
2022/06/01 01:36:01;;;;;;;2.35;1.42;;;;;;;;;;6275080;22;20332;-84
2022/06/01 01:38:54;;;;;;;2.72;1.60;;;;;;;;;;6275765;22;20517;-84
2022/06/01 01:41:35;;;;;;;4.55;1.65;;;;;;;;;;6274778;22;20019;-84
2022/06/01 01:44:06;;;;;;;2.30;1.42;;;;;;;;;;6274156;22;20078;-83
2022/06/01 01:46:59;;;;;;;3.22;1.50;;;;;;;;;;6273879;22;20042;-84
2022/06/01 01:49:33;;;;;;;2.90;1.45;;;;;;;;;;6265617;22;20019;-83
2022/06/01 01:52:05;;;;;;;3.45;1.70;;;;;;;;;;6274083;22;20095;-84
2022/06/01 01:55:20;;;;;;;2.47;1.50;;;;;;;;;;6274556;22;20065;-83
2022/06/01 01:59:03;;;;;;;2.70;1.45;;;;;;;;;;6241780;23;20051;-83
2022/06/01 02:01:41;;;;;;;2.35;1.40;;;;;;;;;;6240593;23;20202;-83
2022/06/01 02:08:11;;;;;;;2.60;1.35;;;;;;;;;;6241935;23;20020;-83
2022/06/01 02:13:31;;;;;;;2.50;1.42;;;;;;;;;;6241520;23;20052;-83
2022/06/01 02:16:28;;;;;;;5.18;1.65;;;;;;;;;;6240918;23;20460;-84
2022/06/01 02:19:00;;;;;;;2.42;1.38;;;;;;;;;;6241484;23;20030;-84
2022/06/01 02:21:28;;;;;;;3.72;1.30;;;;;;;;;;6241391;23;20031;-83
2022/06/01 02:23:59;;;;;;;5.03;1.60;;;;;;;;;;6242358;23;20063;-83
2022/06/01 02:26:28;;;;;;;2.65;1.45;;;;;;;;;;6241755;23;20027;-83
2022/06/01 02:29:02;;;;;;;3.15;1.60;;;;;;;;;;6241352;23;20078;-83
2022/06/01 02:31:37;;;;;;;3.75;1.90;;;;;;;;;;6231021;23;20031;-83
2022/06/01 02:34:32;;;;;;;3.05;1.60;;;;;;;;;;6262936;22;20031;-84
2022/06/01 02:37:10;;;;;;;2.67;1.40;;;;;;;;;;6275775;22;20110;-83
2022/06/01 02:39:41;;;;;;;3.30;1.63;;;;;;;;;;6275209;22;20024;-83
2022/06/01 02:42:42;;;;;;;5.63;1.63;;;;;;;;;;6237687;22;20110;-83
2022/06/01 02:45:12;;;;;;;3.97;1.80;;;;;;;;;;6275079;22;20332;-84
2022/06/01 02:47:44;;;;;;;2.60;1.25;;;;;;;;;;6275454;22;20026;-83
2022/06/01 02:50:23;;;;;;;2.85;1.63;;;;;;;;;;6248293;22;20015;-83
2022/06/01 02:52:51;;;;;;;2.67;1.67;;;;;;;;;;6275957;22;20023;-83
2022/06/01 02:55:21;;;;;;;2.30;1.42;;;;;;;;;;6275481;22;20054;-84
2022/06/01 02:57:50;;;;;;;4.80;2.05;;;;;;;;;;6271435;22;20023;-84
2022/06/01 03:00:26;;;;;;;2.30;1.50;;;;;;;;;;6274194;22;20384;-83
2022/06/01 03:02:59;;;;;;;2.75;1.65;;;;;;;;;;6274829;22;20073;-83
2022/06/01 03:05:31;;;;;;;5.03;1.80;;;;;;;;;;6275550;22;20027;-84
2022/06/01 03:07:59;;;;;;;2.80;1.55;;;;;;;;;;6275459;22;20346;-84
2022/06/01 03:10:28;;;;;;;3.13;1.80;;;;;;;;;;6273994;22;20039;-83
2022/06/01 03:12:56;;;;;;;5.28;2.10;;;;;;;;;;6273256;22;20054;-84
2022/06/01 03:15:24;;;;;;;3.25;1.98;;;;;;;;;;6274854;22;20455;-83
2022/06/01 03:18:02;;;;;;;4.28;2.08;;;;;;;;;;6275431;22;20019;-83
2022/06/01 03:20:33;;;;;;;4.03;2.05;;;;;;;;;;6274955;22;20069;-84
2022/06/01 03:23:01;;;;;;;3.90;1.80;;;;;;;;;;6275105;22;20077;-83
2022/06/01 03:25:29;;;;;;;4.20;2.15;;;;;;;;;;6274800;22;20019;-83
2022/06/01 03:27:59;;;;;;;3.17;1.98;;;;;;;;;;6248670;22;20020;-83
2022/06/01 03:30:28;;;;;;;4.00;2.03;;;;;;;;;;6274763;22;20069;-84
2022/06/01 03:33:01;;;;;;;3.72;1.80;;;;;;;;;;6274277;22;20073;-83
2022/06/01 03:35:31;;;;;;;3.50;2.10;;;;;;;;;;6275178;22;20521;-83
2022/06/01 03:38:00;;;;;;;3.50;2.20;;;;;;;;;;6274906;22;20027;-83
2022/06/01 03:40:53;;;;;;;3.22;1.98;;;;;;;;;;6273942;22;20518;-83
2022/06/01 03:49:49;;;;;;;6.38;1.95;;;;;;;;;;6274202;22;20073;-83
2022/06/01 03:52:21;;;;;;;3.95;2.22;;;;;;;;;;6273348;22;20028;-83
2022/06/01 03:54:49;;;;;;;3.65;1.85;;;;;;;;;;6274152;22;20019;-84
2022/06/01 03:57:23;;;;;;;2.90;1.90;;;;;;;;;;6274572;22;20031;-83
2022/06/01 03:59:51;;;;;;;3.63;2.10;;;;;;;;;;6274238;22;20474;-83
2022/06/01 04:02:19;;;;;;;3.47;2.05;;;;;;;;;;6274299;22;20023;-84
2022/06/01 04:04:47;;;;;;;3.35;1.98;;;;;;;;;;6274969;22;20031;-83
2022/06/01 04:07:15;;;;;;;3.95;2.60;;;;;;;;;;6274141;22;20019;-83
2022/06/01 04:10:08;;;;;;;3.67;2.13;;;;;;;;;;6273748;22;20020;-83
2022/06/01 04:13:02;;;;;;;3.75;2.38;;;;;;;;;;6274341;22;20024;-84
2022/06/01 04:15:29;;;;;;;4.20;2.05;;;;;;;;;;6273938;22;20102;-84
2022/06/01 04:17:57;;;;;;;3.55;2.17;;;;;;;;;;6274167;22;20102;-83
2022/06/01 04:20:25;;;;;;;3.80;2.20;;;;;;;;;;6274326;22;20019;-83
2022/06/01 04:22:54;;;;;;;3.67;2.35;;;;;;;;;;6236837;22;20034;-83
2022/06/01 04:25:30;;;;;;;3.97;2.58;;;;;;;;;;6273319;22;20031;-83
2022/06/01 04:28:21;;;;;;;3.85;2.53;;;;;;;;;;6274544;22;20019;-83
2022/06/01 04:30:49;;;;;;;5.78;3.10;;;;;;;;;;6248153;22;20451;-83
2022/06/01 04:33:21;;;;;;;4.65;2.40;;;;;;;;;;6273706;22;20030;-83
2022/06/01 04:35:49;;;;;;;4.70;2.33;;;;;;;;;;6274097;22;20023;-84
2022/06/01 04:38:41;;;;;;;3.40;2.10;;;;;;;;;;6274266;22;20024;-83
2022/06/01 04:41:13;;;;;;;4.47;2.38;;;;;;;;;;6279037;22;20026;-84
2022/06/01 04:43:41;;;;;;;4.80;2.80;;;;;;;;;;6273277;22;20023;-84
2022/06/01 04:46:09;;;;;;;5.80;3.22;;;;;;;;;;6274091;22;20023;-84
2022/06/01 04:48:37;;;;;;;6.45;3.22;;;;;;;;;;6274653;22;20016;-84
2022/06/01 04:51:05;;;;;;;4.85;3.00;;;;;;;;;;6247594;22;20054;-83
2022/06/01 04:53:33;;;;;;;5.57;2.65;;;;;;;;;;6272565;22;20593;-84
2022/06/01 04:56:01;;;;;;;4.18;2.83;;;;;;;;;;6272998;22;20023;-83
2022/06/01 04:58:29;;;;;;;4.30;2.55;;;;;;;;;;6272012;22;20066;-85
2022/06/01 05:00:57;;;;;;;4.95;2.70;;;;;;;;;;6275563;22;20050;-85
2022/06/01 05:03:50;;;;;;;5.18;2.50;;;;;;;;;;6275357;22;20016;-84
2022/06/01 05:06:24;;;;;;;4.57;2.83;;;;;;;;;;6276170;22;20045;-87
2022/06/01 05:08:57;;;;;;;3.95;2.53;;;;;;;;;;6275678;22;20042;-84
2022/06/01 05:11:25;;;;;;;4.38;2.58;;;;;;;;;;6275094;22;20019;-84
2022/06/01 05:13:57;;;;;;;4.25;2.53;;;;;;;;;;6276084;22;20019;-85
2022/06/01 05:16:25;;;;;;;4.30;2.60;;;;;;;;;;6276300;22;20350;-86
2022/06/01 05:18:53;;;;;;;5.10;2.40;;;;;;;;;;6275303;22;20074;-84
2022/06/01 05:21:22;;;;;;;3.47;1.90;;;;;;;;;;6275780;22;20008;-86
2022/06/01 05:23:49;;;;;;;3.28;1.90;;;;;;;;;;6276067;22;20016;-85
2022/06/01 05:26:17;;;;;;;6.47;2.10;;;;;;;;;;6274299;22;20058;-84
2022/06/01 05:29:09;;;;;;;4.10;2.20;;;;;;;;;;6272040;22;20107;-86
2022/06/01 05:31:37;;;;;;;3.28;1.98;;;;;;;;;;6276643;22;20074;-83
2022/06/01 05:34:05;;;;;;;4.05;1.95;;;;;;;;;;6276139;22;20043;-84
2022/06/01 05:36:37;;;;;;;5.38;2.60;;;;;;;;;;6276308;22;20020;-83
2022/06/01 05:39:05;;;;;;;5.63;2.70;;;;;;;;;;6275403;22;20328;-84
2022/06/01 05:41:37;;;;;;;5.50;2.72;;;;;;;;;;6275488;22;20062;-82
2022/06/01 05:44:06;;;;;;;3.80;2.35;;;;;;;;;;6275161;22;20169;-82
2022/06/01 05:47:01;;;;;;;7.45;2.90;;;;;;;;;;6275885;22;20019;-84
2022/06/01 05:49:33;;;;;;;4.88;2.70;;;;;;;;;;6272314;22;20015;-84
2022/06/01 05:52:01;;;;;;;4.88;2.80;;;;;;;;;;6273618;22;20190;-84
2022/06/01 05:54:29;;;;;;;4.18;2.60;;;;;;;;;;6272212;22;20102;-83
2022/06/01 05:56:57;;;;;;;6.45;2.85;;;;;;;;;;6274207;22;20094;-84
2022/06/01 05:59:31;;;;;;;4.90;2.78;;;;;;;;;;6274549;22;20026;-83
2022/06/01 06:01:59;;;;;;;5.68;3.08;;;;;;;;;;6275478;22;20025;-84
2022/06/01 06:04:27;;;;;;;5.88;2.72;;;;;;;;;;6274746;22;20043;-84
2022/06/01 06:06:59;;;;;;;4.55;2.60;;;;;;;;;;6275113;22;20019;-83
2022/06/01 06:09:27;;;;;;;7.25;2.85;;;;;;;;;;6273977;22;20030;-82
2022/06/01 06:12:19;;;;;;;8.15;2.55;;;;;;;;;;6272379;22;20023;-84
2022/06/01 06:14:52;;;;;;;3.85;2.35;;;;;;;;;;6273966;22;20015;-84
2022/06/01 06:17:19;;;;;;;5.93;3.45;;;;;;;;;;6275283;22;20076;-83
2022/06/01 06:19:47;;;;;;;6.68;3.35;;;;;;;;;;6238089;22;20031;-83
2022/06/01 06:22:15;;;;;;;5.93;3.28;;;;;;;;;;6275919;22;20026;-83
2022/06/01 06:24:47;;;;;;;6.13;3.35;;;;;;;;;;6274019;22;20328;-83
2022/06/01 06:30:09;;;;;;;5.72;3.92;;;;;;;;;;6236211;22;20034;-83
2022/06/01 06:32:37;;;;;;;8.50;4.57;;;;;;;;;;6265839;22;20019;-83
2022/06/01 06:35:29;;;;;;;7.55;5.00;;;;;;;;;;6275403;22;20020;-83
2022/06/01 06:38:21;;;;;;;9.02;6.43;;;;;;;;;;6274422;22;20038;-84
2022/06/01 06:41:13;;;;;;;10.15;7.38;;;;;;;;;;6262968;22;20427;-84
2022/06/01 06:44:05;;;;;;;11.60;6.97;;;;;;;;;;6262474;22;20047;-83
2022/06/01 06:46:33;;;;;;;10.93;7.55;;;;;;;;;;6265669;22;20030;-83
2022/06/01 06:49:01;;;;;;;10.13;7.00;;;;;;;;;;6245923;22;20056;-83
2022/06/01 06:51:35;;;;;;;13.18;7.82;;;;;;;;;;6273778;22;20459;-83
2022/06/01 06:54:27;;;;;;;11.55;7.43;;;;;;;;;;6274068;22;20135;-83
2022/06/01 06:56:59;;;;;;;9.82;6.90;;;;;;;;;;6272801;22;20048;-83
2022/06/01 06:59:27;;;;;;;10.38;6.85;;;;;;;;;;6272167;22;20090;-84
2022/06/01 07:01:55;;;;;;;10.05;6.35;;;;;;;;;;6271746;22;20020;-84
2022/06/01 07:04:27;;;;;;;11.43;6.60;;;;;;;;;;6273467;22;20042;-83
2022/06/01 07:06:55;;;;;;;11.70;5.80;;;;;;;;;;6272610;22;20023;-83
2022/06/01 07:09:48;;;;;;;10.38;6.55;;;;;;;;;;6273522;22;20020;-83
2022/06/01 07:12:17;;;;;;;10.10;6.63;;;;;;;;;;6273622;22;20477;-83
2022/06/01 07:14:45;;;;;;;9.38;6.18;;;;;;;;;;6246923;22;20102;-83
2022/06/01 07:17:13;;;;;;;9.80;6.05;;;;;;;;;;6272927;22;20043;-83
2022/06/01 07:19:41;;;;;;;8.88;6.05;;;;;;;;;;6273682;22;20309;-83
2022/06/01 07:22:09;;;;;;;9.25;6.18;;;;;;;;;;6272985;22;20023;-84
2022/06/01 07:24:37;;;;;;;9.07;5.72;;;;;;;;;;6274222;22;20023;-84
2022/06/01 07:27:05;;;;;;;8.50;5.45;;;;;;;;;;6274291;22;20108;-83
2022/06/01 07:29:38;;;;;;;9.18;5.60;;;;;;;;;;6273031;22;20378;-83
2022/06/01 07:32:05;;;;;;;8.65;4.95;;;;;;;;;;6272467;22;20027;-83
2022/06/01 07:34:37;;;;;;;7.50;5.68;;;;;;;;;;6273976;22;20019;-83
2022/06/01 07:43:05;;;;;;;7.82;5.30;;;;;;;;;;6272418;22;20529;-84
2022/06/01 07:45:59;;;;;;;7.60;5.63;;;;;;;;;;6273699;22;20150;-83
2022/06/01 07:48:32;;;;;;;10.23;6.20;;;;;;;;;;6273314;22;20023;-84
2022/06/01 07:51:21;;;;;;;8.85;6.03;;;;;;;;;;6272355;22;20029;-84
2022/06/01 07:54:16;;;;;;;7.38;5.07;;;;;;;;;;6273787;22;20014;-84
2022/06/01 07:56:43;;;;;;;8.88;5.82;;;;;;;;;;6271708;22;20020;-83
2022/06/01 07:59:11;;;;;;;8.52;6.13;;;;;;;;;;6264859;22;20028;-83
2022/06/01 08:02:06;;;;;;;9.23;5.60;;;;;;;;;;6272391;22;20087;-83
2022/06/01 08:04:33;;;;;;;8.10;5.60;;;;;;;;;;6273940;22;20026;-83
2022/06/01 08:07:07;;;;;;;8.70;5.75;;;;;;;;;;6272835;22;20095;-83
2022/06/01 08:09:35;;;;;;;8.20;5.60;;;;;;;;;;6273230;22;20015;-83
2022/06/01 08:14:49;;;;;;;8.82;4.70;;;;;;;;;;6273137;22;20046;-83
2022/06/01 08:17:17;;;;;;;7.20;5.18;;;;;;;;;;6233849;22;20028;-83
2022/06/01 08:19:46;;;;;;;10.25;5.80;;;;;;;;;;6272981;22;20030;-83
2022/06/01 08:22:14;;;;;;;14.15;6.30;;;;;;;;;;6272400;22;20578;-83
2022/06/01 08:24:43;;;;;;;9.30;5.43;;;;;;;;;;6272367;22;20027;-84
2022/06/01 08:27:11;;;;;;;9.30;5.50;;;;;;;;;;6273425;22;20024;-84
2022/06/01 08:29:39;;;;;;;14.13;5.70;;;;;;;;;;6273425;22;20051;-84
2022/06/01 08:32:08;;;;;;;6.97;5.20;;;;;;;;;;6236180;22;20069;-84
2022/06/01 08:34:35;;;;;;;8.57;5.78;;;;;;;;;;6275859;22;20375;-84
2022/06/01 08:37:03;;;;;;;8.55;5.40;;;;;;;;;;6275198;22;20040;-84
2022/06/01 08:39:31;;;;;;;7.75;5.28;;;;;;;;;;6276096;22;20026;-84
2022/06/01 08:42:01;;;;;;;6.97;5.25;;;;;;;;;;6276394;22;20016;-84
2022/06/01 08:44:32;;;;;;;9.90;6.07;;;;;;;;;;6276982;22;20024;-84
2022/06/01 08:47:08;;;;;;;10.20;6.63;;;;;;;;;;6275488;22;20054;-84
2022/06/01 08:49:36;;;;;;;10.63;7.10;;;;;;;;;;6276839;22;20046;-84
2022/06/01 08:52:04;;;;;;;10.07;5.65;;;;;;;;;;6276726;22;20024;-84
2022/06/01 08:54:33;;;;;;;11.65;6.68;;;;;;;;;;6275292;22;20518;-84
2022/06/01 08:57:20;;;;;;;9.68;7.18;;;;;;;;;;6275303;22;20042;-84
2022/06/01 09:00:09;;;;;;;15.90;8.00;;;;;;;;;;6275212;22;20015;-83
2022/06/01 09:03:28;;;;;;;10.10;7.28;;;;;;;;;;6274160;22;20019;-84
2022/06/01 09:06:26;;;;;;;12.82;7.78;;;;;;;;;;6119741;23;20205;-84
2022/06/01 09:09:09;;;;;;;8.90;6.22;;;;;;;;;;6121293;23;20057;-84
2022/06/01 09:11:40;;;;;;;8.20;5.93;;;;;;;;;;6120114;23;20105;-84
2022/06/01 09:14:30;;;;;;;8.70;6.22;;;;;;;;;;6121531;23;20030;-84
2022/06/01 09:16:59;;;;;;;10.05;5.50;;;;;;;;;;6120831;23;20028;-84
2022/06/01 09:22:37;;;;;;;9.23;5.30;;;;;;;;;;6121025;23;20029;-84
2022/06/01 09:25:10;;;;;;;7.68;5.40;;;;;;;;;;6120392;23;20041;-84
2022/06/01 09:27:52;;;;;;;8.80;6.50;;;;;;;;;;6119746;23;20148;-84
2022/06/01 09:30:35;;;;;;;7.72;5.20;;;;;;;;;;6120417;23;20022;-84
2022/06/01 09:33:10;;;;;;;7.68;5.22;;;;;;;;;;6119188;23;20057;-84
2022/06/01 09:36:07;;;;;;;6.70;4.35;;;;;;;;;;6121294;23;20119;-84
2022/06/01 09:38:39;;;;;;;5.25;2.40;;;;;;;;;;6121086;23;20042;-84
2022/06/01 09:41:36;;;;;;;4.57;2.22;;;;;;;;;;6212439;22;20035;-84
2022/06/01 09:44:06;;;;;;;4.68;3.00;;;;;;;;;;6274611;22;20054;-84
2022/06/01 09:46:47;;;;;;;3.88;2.47;;;;;;;;;;6272020;22;20355;-85
2022/06/01 09:49:24;;;;;;;4.75;2.20;;;;;;;;;;6272930;22;20015;-84
2022/06/01 09:52:00;;;;;;;3.55;2.25;;;;;;;;;;6275480;22;20528;-84
2022/06/01 09:54:55;;;;;;;3.63;2.35;;;;;;;;;;6274858;22;20047;-85
2022/06/01 09:57:32;;;;;;;2.97;2.00;;;;;;;;;;6274777;22;20028;-85
2022/06/01 10:06:19;;;;;;;3.33;2.15;;;;;;;;;;6274644;22;20020;-84
2022/06/01 10:08:56;;;;;;;5.00;2.40;;;;;;;;;;6275504;22;20033;-84
2022/06/01 10:11:36;;;;;;;3.97;2.65;;;;;;;;;;6272547;22;20015;-85
2022/06/01 10:14:22;;;;;;;5.10;2.58;;;;;;;;;;6274158;22;20023;-85
2022/06/01 10:17:19;;;;;;;4.28;2.70;;;;;;;;;;6273639;22;20046;-85
2022/06/01 10:19:56;;;;;;;3.65;2.55;;;;;;;;;;6273889;22;20019;-85
2022/06/01 10:22:27;;;;;;;7.13;2.95;;;;;;;;;;6272869;22;20023;-85
2022/06/01 10:25:07;;;;;;;4.90;3.03;;;;;;;;;;6274951;22;20486;-85
2022/06/01 10:27:47;;;;;;;4.88;2.90;;;;;;;;;;6273196;22;20043;-84
2022/06/01 10:30:35;;;;;;;6.35;3.28;;;;;;;;;;6275047;22;20467;-85
2022/06/01 10:33:49;;;;;;;6.20;2.80;;;;;;;;;;6271537;22;20486;-86
2022/06/01 10:36:39;;;;;;;3.83;2.60;;;;;;;;;;6276536;22;20358;-85
2022/06/01 10:39:17;;;;;;;4.75;2.20;;;;;;;;;;6276417;22;20024;-85
2022/06/01 10:42:04;;;;;;;4.97;2.50;;;;;;;;;;6274639;22;20092;-84
2022/06/01 10:44:47;;;;;;;4.70;2.67;;;;;;;;;;6275500;22;20023;-84
2022/06/01 10:47:22;;;;;;;5.30;2.42;;;;;;;;;;6275972;22;20019;-83
2022/06/01 10:50:11;;;;;;;3.80;2.53;;;;;;;;;;6278645;22;20026;-84
2022/06/01 10:52:51;;;;;;;4.15;2.35;;;;;;;;;;6277275;22;20027;-84
2022/06/01 10:55:34;;;;;;;4.55;2.22;;;;;;;;;;6276097;22;20019;-84
2022/06/01 10:58:03;;;;;;;6.85;2.35;;;;;;;;;;6274285;22;20103;-84
2022/06/01 11:00:41;;;;;;;4.95;2.67;;;;;;;;;;6275508;22;20030;-84
2022/06/01 11:03:23;;;;;;;5.95;2.50;;;;;;;;;;6274076;22;20367;-84
2022/06/01 11:06:11;;;;;;;3.50;2.35;;;;;;;;;;6275833;22;20098;-84
2022/06/01 11:08:50;;;;;;;4.50;2.30;;;;;;;;;;6275553;22;20090;-84
2022/06/01 11:11:18;;;;;;;5.05;2.55;;;;;;;;;;6265346;22;20102;-84
2022/06/01 11:13:45;;;;;;;4.82;2.85;;;;;;;;;;6275434;22;20483;-84
2022/06/01 11:16:34;;;;;;;4.70;2.80;;;;;;;;;;6276058;22;20099;-84
2022/06/01 11:19:54;;;;;;;4.97;2.80;;;;;;;;;;6276497;22;20023;-84
2022/06/01 11:22:59;;;;;;;5.07;2.67;;;;;;;;;;6276006;22;20015;-84
2022/06/01 11:25:38;;;;;;;4.22;2.60;;;;;;;;;;6275226;22;20047;-84
2022/06/01 11:28:31;;;;;;;3.58;2.45;;;;;;;;;;6275664;22;20031;-87
2022/06/01 11:31:18;;;;;;;4.60;2.50;;;;;;;;;;6274452;22;20098;-84
2022/06/01 11:34:04;;;;;;;3.97;2.80;;;;;;;;;;6274800;22;20015;-84
2022/06/01 11:36:37;;;;;;;4.05;2.55;;;;;;;;;;6276170;22;20086;-84
2022/06/01 11:39:57;;;;;;;3.65;2.58;;;;;;;;;;6276719;22;20459;-84
2022/06/01 11:42:55;;;;;;;4.05;2.75;;;;;;;;;;6274806;22;20426;-84
2022/06/01 11:45:32;;;;;;;3.63;2.30;;;;;;;;;;6275683;22;20570;-84
2022/06/01 11:48:05;;;;;;;3.47;2.40;;;;;;;;;;6237522;22;20031;-84
2022/06/01 11:50:55;;;;;;;4.60;2.80;;;;;;;;;;6276218;22;20024;-84
2022/06/01 11:53:43;;;;;;;4.45;2.60;;;;;;;;;;6276354;22;20114;-84
2022/06/01 11:56:26;;;;;;;5.30;2.67;;;;;;;;;;6273607;22;20364;-84
2022/06/01 11:59:27;;;;;;;4.28;2.85;;;;;;;;;;6276164;22;20423;-85
2022/06/01 12:02:40;;;;;;;4.05;2.58;;;;;;;;;;6274940;22;20083;-85
2022/06/01 12:05:19;;;;;;;3.83;2.22;;;;;;;;;;6276053;22;20074;-85
2022/06/01 12:07:50;;;;;;;4.25;2.22;;;;;;;;;;6276410;22;20020;-85
2022/06/01 12:10:21;;;;;;;6.13;2.67;;;;;;;;;;6275696;22;20082;-84
2022/06/01 12:13:26;;;;;;;3.15;2.00;;;;;;;;;;6275346;22;20027;-84
2022/06/01 12:16:20;;;;;;;5.40;2.50;;;;;;;;;;6273761;22;20020;-85
2022/06/01 12:19:30;;;;;;;3.95;2.58;;;;;;;;;;6274891;22;20023;-84
2022/06/01 12:28:30;;;;;;;4.20;2.78;;;;;;;;;;6274493;22;20026;-84
2022/06/01 12:28:47;;;;;;;3.60;2.55;;;;;;;;;;6274467;22;20019;-85
2022/06/01 12:31:13;;;;;;;4.25;2.63;;;;;;;;;;6261791;22;20054;-84
2022/06/01 12:34:24;;;;;;;8.75;3.10;;;;;;;;;;6274992;22;20007;-85
2022/06/01 12:37:13;;;;;;;5.63;3.17;;;;;;;;;;6277625;22;20039;-84
2022/06/01 12:39:48;;;;;;;4.82;3.17;;;;;;;;;;6271232;22;20343;-85
2022/06/01 12:42:27;;;;;;;4.45;3.13;;;;;;;;;;6276289;22;20022;-84
2022/06/01 12:44:57;;;;;;;6.13;3.35;;;;;;;;;;6264285;22;20031;-84
2022/06/01 12:47:35;;;;;;;7.60;3.50;;;;;;;;;;6274405;22;20016;-84
2022/06/01 12:50:14;;;;;;;7.30;3.72;;;;;;;;;;6274711;22;20027;-84
2022/06/01 12:52:44;;;;;;;5.28;3.45;;;;;;;;;;6249862;22;20012;-84
2022/06/01 12:55:17;;;;;;;5.72;4.00;;;;;;;;;;6274050;22;20443;-85
2022/06/01 12:57:59;;;;;;;6.50;3.92;;;;;;;;;;6272532;22;20023;-85
2022/06/01 13:00:30;;;;;;;5.50;3.33;;;;;;;;;;6273480;22;20050;-84
2022/06/01 13:02:59;;;;;;;6.50;3.47;;;;;;;;;;6273043;22;20531;-84
2022/06/01 13:05:40;;;;;;;6.30;3.85;;;;;;;;;;6274828;22;20371;-85
2022/06/01 13:08:17;;;;;;;7.07;4.40;;;;;;;;;;6274085;22;20495;-85
2022/06/01 13:11:10;;;;;;;7.82;4.18;;;;;;;;;;6274233;22;20023;-85
2022/06/01 13:13:44;;;;;;;6.05;4.20;;;;;;;;;;6275162;22;20065;-85
2022/06/01 13:16:11;;;;;;;9.60;3.85;;;;;;;;;;6262772;22;20031;-84
2022/06/01 13:18:42;;;;;;;5.95;3.47;;;;;;;;;;6275056;22;20019;-85
2022/06/01 13:21:32;;;;;;;6.20;3.22;;;;;;;;;;6275003;22;20027;-84
2022/06/01 13:28:25;;;;;;;3.30;1.88;;;;;;;;;;6272817;22;20004;-86
2022/06/01 13:30:53;;;;;;;5.93;2.60;;;;;;;;;;6273529;22;20019;-85
2022/06/01 13:33:31;;;;;;;3.65;2.03;;;;;;;;;;6273741;22;20517;-85
2022/06/01 13:36:01;;;;;;;3.47;2.00;;;;;;;;;;6274570;22;20111;-85
2022/06/01 13:38:44;;;;;;;4.45;2.13;;;;;;;;;;6275261;22;20023;-86
2022/06/01 13:41:26;;;;;;;4.32;2.60;;;;;;;;;;6275555;22;20047;-83
2022/06/01 13:44:05;;;;;;;8.35;3.03;;;;;;;;;;6274408;22;20061;-86
2022/06/01 13:46:45;;;;;;;8.25;3.30;;;;;;;;;;6219454;22;20024;-86
2022/06/01 13:49:16;;;;;;;9.13;3.22;;;;;;;;;;6251591;22;20019;-86
2022/06/01 13:51:54;;;;;;;7.05;3.30;;;;;;;;;;6277811;22;20046;-86
2022/06/01 13:54:26;;;;;;;4.45;2.78;;;;;;;;;;6276031;22;20019;-88
2022/06/01 13:57:17;;;;;;;8.32;3.10;;;;;;;;;;6276899;22;20019;-87
2022/06/01 13:59:57;;;;;;;5.05;2.63;;;;;;;;;;6274606;22;20078;-85
2022/06/01 14:02:32;;;;;;;5.05;2.90;;;;;;;;;;6263008;22;20572;-85
2022/06/01 14:05:16;;;;;;;6.93;3.10;;;;;;;;;;6249402;22;20024;-85
2022/06/01 14:08:24;;;;;;;5.50;2.83;;;;;;;;;;6275585;22;20158;-85
2022/06/01 14:10:53;;;;;;;4.45;2.97;;;;;;;;;;6274462;22;20067;-85
2022/06/01 14:13:36;;;;;;;6.20;3.22;;;;;;;;;;6275579;22;20012;-85
2022/06/01 14:16:03;;;;;;;6.72;3.42;;;;;;;;;;6275100;22;20019;-85
2022/06/01 14:18:35;;;;;;;6.00;3.35;;;;;;;;;;6275051;22;20030;-84
2022/06/01 14:21:04;;;;;;;6.35;3.25;;;;;;;;;;6274764;22;20020;-85
2022/06/01 14:23:31;;;;;;;5.30;3.53;;;;;;;;;;6273770;22;20020;-83
2022/06/01 14:28:49;;;;;;;5.32;3.75;;;;;;;;;;6275447;22;20050;-83
2022/06/01 14:31:26;;;;;;;6.40;3.97;;;;;;;;;;6273473;22;20019;-84
2022/06/01 14:33:54;;;;;;;6.00;4.00;;;;;;;;;;6274395;22;20023;-83
2022/06/01 14:36:23;;;;;;;5.72;3.92;;;;;;;;;;6274086;22;20070;-84
2022/06/01 14:38:51;;;;;;;8.75;4.25;;;;;;;;;;6262206;22;20111;-83
2022/06/01 14:41:30;;;;;;;8.80;4.40;;;;;;;;;;6274600;22;20015;-84
2022/06/01 14:44:03;;;;;;;6.00;4.18;;;;;;;;;;6275215;22;20022;-85
2022/06/01 14:46:37;;;;;;;6.10;4.57;;;;;;;;;;6274227;22;20023;-84
2022/06/01 14:49:08;;;;;;;7.07;4.65;;;;;;;;;;6273736;22;20422;-84
2022/06/01 14:51:40;;;;;;;8.70;4.70;;;;;;;;;;6276062;22;20022;-84
2022/06/01 14:54:10;;;;;;;6.60;5.07;;;;;;;;;;6275128;22;20062;-84
2022/06/01 14:57:04;;;;;;;7.07;4.82;;;;;;;;;;6275426;22;20039;-84
2022/06/01 14:59:55;;;;;;;7.20;4.38;;;;;;;;;;6276028;22;20343;-83
2022/06/01 15:02:23;;;;;;;7.55;4.35;;;;;;;;;;6249302;22;20104;-83
2022/06/01 15:05:02;;;;;;;7.32;4.40;;;;;;;;;;6214425;22;20027;-83
2022/06/01 15:07:31;;;;;;;9.38;5.10;;;;;;;;;;6274311;22;20023;-84
2022/06/01 15:09:59;;;;;;;7.88;4.57;;;;;;;;;;6275814;22;20042;-84
2022/06/01 15:12:27;;;;;;;7.78;5.30;;;;;;;;;;6276597;22;20099;-84
2022/06/01 15:14:55;;;;;;;7.65;4.93;;;;;;;;;;6276736;22;20024;-83
2022/06/01 15:17:25;;;;;;;6.93;4.50;;;;;;;;;;6277291;22;20020;-84
2022/06/01 15:19:55;;;;;;;6.30;4.60;;;;;;;;;;6277584;22;20057;-83
2022/06/01 15:22:47;;;;;;;7.28;4.60;;;;;;;;;;6277202;22;20016;-84
2022/06/01 15:25:39;;;;;;;7.05;5.30;;;;;;;;;;6267137;22;20050;-82
2022/06/01 15:28:12;;;;;;;6.93;4.90;;;;;;;;;;6273746;22;20030;-83
2022/06/01 15:42:16;;;;;;;8.85;5.05;;;;;;;;;;6275828;22;20016;-83
2022/06/01 15:44:46;;;;;;;8.48;5.10;;;;;;;;;;6277526;22;20065;-83
2022/06/01 15:47:19;;;;;;;6.40;4.25;;;;;;;;;;6265699;22;20054;-83
2022/06/01 15:49:48;;;;;;;7.07;4.75;;;;;;;;;;6276410;22;20016;-83
2022/06/01 15:52:20;;;;;;;6.22;4.53;;;;;;;;;;6249512;22;20016;-83
2022/06/01 15:55:14;;;;;;;6.65;4.85;;;;;;;;;;6276209;22;20062;-83
2022/06/01 15:57:43;;;;;;;8.35;5.10;;;;;;;;;;6275985;22;20519;-84
2022/06/01 16:00:12;;;;;;;8.90;5.15;;;;;;;;;;6276279;22;20024;-84
2022/06/01 16:02:40;;;;;;;7.43;5.00;;;;;;;;;;6273177;22;20026;-84
2022/06/01 16:05:10;;;;;;;7.20;4.95;;;;;;;;;;6276167;22;20045;-83
2022/06/01 16:07:37;;;;;;;6.28;4.80;;;;;;;;;;6275996;22;20016;-84
2022/06/01 16:10:06;;;;;;;6.65;5.05;;;;;;;;;;6274594;22;20755;-83
2022/06/01 16:12:39;;;;;;;7.70;4.93;;;;;;;;;;6275828;22;20042;-83
2022/06/01 16:15:08;;;;;;;8.23;4.82;;;;;;;;;;6275563;22;20315;-84
2022/06/01 16:17:39;;;;;;;6.88;4.85;;;;;;;;;;6275838;22;20090;-83
2022/06/01 16:20:08;;;;;;;6.68;4.97;;;;;;;;;;6275609;22;20054;-83
2022/06/01 16:22:41;;;;;;;7.60;5.25;;;;;;;;;;6275582;22;20012;-83
2022/06/01 16:25:13;;;;;;;6.70;5.00;;;;;;;;;;6275026;22;20690;-84
2022/06/01 16:27:41;;;;;;;7.05;5.05;;;;;;;;;;6275753;22;20023;-84
2022/06/01 16:30:10;;;;;;;8.43;5.80;;;;;;;;;;6275193;22;20054;-84
2022/06/01 16:32:42;;;;;;;6.88;4.80;;;;;;;;;;6247325;22;20054;-84
2022/06/01 16:35:23;;;;;;;6.55;4.85;;;;;;;;;;6275199;22;20020;-84
2022/06/01 16:37:51;;;;;;;7.93;4.45;;;;;;;;;;6263040;22;20058;-84